APL New Jersey — A8NM6 — position and weather

sailwx.info

Track history (hours):
 
Tides and Currents Weather Stations Pressure Air Temp Water Temp Dewpoint Dewpoint Depression Visibility Wind Speed Wind Dir Waves Ship Positions

APL New Jersey

Last reported at 2017-Sep-10 00:32 UTC. Time now 2017-Sep-20 23:56 UTC.
Position N 31°27' E 032°19'.
Warning: this ship's position is 10 days out of date.

Length 293 m; draft 13.8 m.

Type: Ship (hazmat cat A). MMSI: 636013522.

Date/timePositionNaut miles runAvg speedWind from/ knotsBaromVisibWave heightAir tempDewpointWater temp
2017-Sep-10 00:32N 31°27' E 032°19'0 0.1
2017-Sep-10 00:29N 31°27' E 032°19'0 0.0
2017-Sep-09 23:47N 31°27' E 032°19'0 0.0
2017-Sep-09 23:11N 31°27' E 032°19'0 0.0
2017-Sep-09 22:50N 31°27' E 032°19'0 0.1
2017-Sep-09 22:14N 31°27' E 032°19'0 0.0
2017-Sep-09 21:53N 31°27' E 032°19'0 0.0
2017-Sep-09 21:29N 31°27' E 032°19'0 0.0
2017-Sep-09 20:59N 31°27' E 032°19'0 0.1
2017-Sep-09 20:29N 31°27' E 032°19'0 0.0
2017-Sep-09 19:59N 31°27' E 032°19'0 0.0
2017-Sep-09 19:29N 31°27' E 032°19'0 0.0
2017-Sep-09 18:59N 31°27' E 032°19'0 0.0
2017-Sep-09 18:29N 31°27' E 032°19'0 0.0
2017-Sep-09 17:53N 31°27' E 032°19'0 0.0
2017-Sep-09 17:29N 31°27' E 032°19'0 0.0
2017-Sep-09 15:23N 31°27' E 032°19'0 0.0
2017-Sep-09 14:59N 31°27' E 032°19'0 0.0
2017-Sep-09 14:26N 31°27' E 032°19'0 0.0
2017-Sep-09 13:59N 31°27' E 032°19'0 0.0
2017-Sep-09 13:20N 31°27' E 032°19'0 0.1
2017-Sep-09 13:00N 31°27' E 032°19'0 0.0
2017-Sep-09 12:25N 31°27' E 032°19'0 0.0
2017-Sep-09 12:00N 31°27' E 032°19'0 0.0
2017-Sep-09 11:30N 31°27' E 032°19'0 0.0
2017-Sep-09 11:00N 31°27' E 032°19'19 2.9
2017-Sep-09 04:21N 31°39' E 032°02'  
2017-Sep-05 16:12N 35°42' E 014°59'418.1
2017-Sep-05 16:00N 35°43' E 014°54'917.9
2017-Sep-05 15:30N 35°45' E 014°44'916.2
2017-Sep-05 14:59N 35°48' E 014°34'2 3.2
2017-Sep-05 14:23N 35°49' E 014°32'0 0.0
2017-Sep-05 13:53N 35°49' E 014°32'0 0.0
2017-Sep-05 13:26N 35°49' E 014°32'0 0.0
2017-Sep-05 12:59N 35°49' E 014°32'0 0.0
2017-Sep-05 12:20N 35°49' E 014°32'0 0.0
2017-Sep-05 11:59N 35°49' E 014°32'0 0.0
2017-Sep-05 11:29N 35°49' E 014°32'0 0.0
2017-Sep-05 10:56N 35°49' E 014°32'0 0.0
2017-Sep-05 10:29N 35°49' E 014°32'0 0.0
2017-Sep-05 09:59N 35°49' E 014°32'0 0.0
2017-Sep-05 09:23N 35°49' E 014°32'0 0.0
2017-Sep-05 08:59N 35°49' E 014°32'0 0.0
2017-Sep-05 08:29N 35°49' E 014°32'0 0.0
2017-Sep-05 07:56N 35°49' E 014°32'0 0.0
2017-Sep-05 05:11N 35°49' E 014°32'0 0.0
2017-Sep-05 04:47N 35°49' E 014°32'0 0.0
2017-Sep-05 04:26N 35°49' E 014°32'0 0.0
2017-Sep-05 03:56N 35°49' E 014°32'0 0.0
2017-Sep-05 03:20N 35°49' E 014°32'0 0.0
2017-Sep-05 02:17N 35°49' E 014°32'0 0.0
2017-Sep-05 01:47N 35°49' E 014°32'0 0.0
2017-Sep-05 01:23N 35°49' E 014°32'0 0.0
2017-Sep-05 00:35N 35°49' E 014°32'0 0.0
2017-Sep-05 00:23N 35°49' E 014°32'0 0.0
2017-Sep-04 23:59N 35°49' E 014°32'0 0.0
2017-Sep-04 23:29N 35°49' E 014°32'0 0.0
2017-Sep-04 22:59N 35°49' E 014°32'0 0.0
2017-Sep-04 22:26N 35°49' E 014°32'0 0.0
2017-Sep-04 21:59N 35°49' E 014°32'0 0.0
2017-Sep-04 21:29N 35°49' E 014°32'0 0.0
2017-Sep-04 20:59N 35°49' E 014°32'0 0.0
2017-Sep-04 20:26N 35°49' E 014°32'0 0.0
2017-Sep-04 19:59N 35°49' E 014°32'0 0.1
2017-Sep-04 19:30N 35°49' E 014°32'1 2.9
2017-Sep-04 18:59N 35°49' E 014°34'2 3.5
2017-Sep-04 18:24N 35°47' E 014°36'0 0.5
2017-Sep-04 18:00N 35°48' E 014°36'0 0.5
2017-Sep-04 17:30N 35°48' E 014°36'0 0.4
2017-Sep-04 17:00N 35°48' E 014°36'2 4.4
2017-Sep-04 16:30N 35°47' E 014°39'3 6.0
2017-Sep-04 16:00N 35°46' E 014°43'510.8
2017-Sep-04 15:30N 35°46' E 014°49'612.6
2017-Sep-04 15:00N 35°50' E 014°55'714.2
2017-Sep-04 14:29N 35°56' E 015°00'10816.5
2017-Sep-04 07:57N 37°24' E 016°19'5319.0
2017-Sep-04 05:11N 38°07' E 016°58'38417.7
2017-Sep-03 07:29N 44°08' E 014°01'1021.4
2017-Sep-03 07:00N 44°16' E 013°52'1121.4
2017-Sep-03 06:30N 44°25' E 013°44'1121.3
2017-Sep-03 06:00N 44°34' E 013°36'1121.4
2017-Sep-03 05:31N 44°43' E 013°29'1121.2
2017-Sep-03 05:00N 44°52' E 013°21'1121.2
2017-Sep-03 04:30N 45°01' E 013°13'1020.9
2017-Sep-03 04:00N 45°10' E 013°05'1121.2
2017-Sep-03 03:30N 45°20' E 013°02'1020.3
2017-Sep-03 03:01N 45°28' E 013°10'1121.2
2017-Sep-03 02:30N 45°35' E 013°22'1019.2
2017-Sep-03 02:01N 45°37' E 013°35'612.8
2017-Sep-03 01:30N 45°34' E 013°43'1 1.8
2017-Sep-03 01:00N 45°33' E 013°44'0 0.1
2017-Sep-03 00:30N 45°33' E 013°44'0 0.0
2017-Sep-03 00:01N 45°33' E 013°44'0 0.0
2017-Sep-02 23:30N 45°33' E 013°44'0 0.0
2017-Sep-02 23:01N 45°33' E 013°44'0 0.0
2017-Sep-02 22:30N 45°33' E 013°44'0 0.0
2017-Sep-02 21:55N 45°33' E 013°44'0 0.0
2017-Sep-02 21:25N 45°33' E 013°44'0 0.0
2017-Sep-02 21:01N 45°33' E 013°44'0 0.0
2017-Sep-02 20:24N 45°33' E 013°44'0 0.0
2017-Sep-02 20:01N 45°33' E 013°44'0 0.0
2017-Sep-02 19:30N 45°33' E 013°44'0 0.0
2017-Sep-02 19:01N 45°33' E 013°44'0 0.0
2017-Sep-02 18:31N 45°33' E 013°44'0 0.0
2017-Sep-02 18:00N 45°33' E 013°44'0 0.0
2017-Sep-02 17:28N 45°33' E 013°44'0 0.0
2017-Sep-02 17:00N 45°33' E 013°44'0 0.0
2017-Sep-02 16:30N 45°33' E 013°44'0 0.0
2017-Sep-02 16:01N 45°33' E 013°44'0 0.0
2017-Sep-02 15:27N 45°33' E 013°44'0 0.0
2017-Sep-02 15:00N 45°33' E 013°44'0 0.0
2017-Sep-02 14:30N 45°33' E 013°44'0 0.0
2017-Sep-02 14:01N 45°33' E 013°44'0 0.0
2017-Sep-02 13:27N 45°33' E 013°44'0 0.0
2017-Sep-02 13:00N 45°33' E 013°44'0 0.0
2017-Sep-02 12:31N 45°33' E 013°44'0 0.0
2017-Sep-02 12:01N 45°33' E 013°44'0 0.0
2017-Sep-02 11:30N 45°33' E 013°44'0 0.0
2017-Sep-02 11:00N 45°33' E 013°44'0 0.0
2017-Sep-02 10:27N 45°33' E 013°44'0 0.0
2017-Sep-02 10:00N 45°33' E 013°44'0 0.0
2017-Sep-02 09:31N 45°33' E 013°44'0 0.0
2017-Sep-02 09:00N 45°33' E 013°44'0 0.0
2017-Sep-02 08:24N 45°33' E 013°44'0 0.0
2017-Sep-02 08:00N 45°33' E 013°44'0 0.0
2017-Sep-02 07:30N 45°33' E 013°44'0 0.0
2017-Sep-02 07:00N 45°33' E 013°44'0 0.0
2017-Sep-02 06:30N 45°33' E 013°44'0 0.0
2017-Sep-02 06:01N 45°33' E 013°44'0 0.0
2017-Sep-02 05:31N 45°33' E 013°44'0 0.0
2017-Sep-02 04:54N 45°33' E 013°44'0 0.0
2017-Sep-02 04:24N 45°33' E 013°44'0 0.0
2017-Sep-02 04:00N 45°33' E 013°44'0 0.0
2017-Sep-02 03:31N 45°33' E 013°44'0 0.0
2017-Sep-02 03:01N 45°33' E 013°44'0 0.0
2017-Sep-02 02:30N 45°33' E 013°44'0 0.0
2017-Sep-02 02:00N 45°33' E 013°44'0 0.0
2017-Sep-02 01:30N 45°33' E 013°44'0 0.0
2017-Sep-02 01:00N 45°33' E 013°44'0 0.0
2017-Sep-02 00:31N 45°33' E 013°44'0 0.0
2017-Sep-02 00:01N 45°33' E 013°44'0 0.0
2017-Sep-01 23:30N 45°33' E 013°44'0 0.0
2017-Sep-01 22:57N 45°33' E 013°44'0 0.0
2017-Sep-01 22:31N 45°33' E 013°44'0 0.0
2017-Sep-01 22:00N 45°33' E 013°44'0 0.0
2017-Sep-01 21:25N 45°33' E 013°44'0 0.1
2017-Sep-01 20:54N 45°33' E 013°44'0 0.1
2017-Sep-01 20:28N 45°33' E 013°44'0 0.1
2017-Sep-01 20:01N 45°33' E 013°44'0 0.0
2017-Sep-01 19:30N 45°33' E 013°44'0 0.0
2017-Sep-01 19:00N 45°33' E 013°44'0 0.1
2017-Sep-01 18:30N 45°33' E 013°44'2 4.5
2017-Sep-01 18:00N 45°34' E 013°41'510.1
2017-Sep-01 17:30N 45°35' E 013°34'714.1
2017-Sep-01 17:00N 45°32' E 013°25'815.9
2017-Sep-01 16:30N 45°28' E 013°14'816.0
2017-Sep-01 16:00N 45°25' E 013°04'815.8
2017-Sep-01 15:30N 45°21' E 012°54'815.5
2017-Sep-01 15:00N 45°18' E 012°44'815.7
2017-Sep-01 14:30N 45°15' E 012°34'713.2
2017-Sep-01 14:00N 45°18' E 012°25'611.3
2017-Sep-01 13:30N 45°20' E 012°18'3 6.8
2017-Sep-01 13:00N 45°23' E 012°16'3 5.9
2017-Sep-01 12:30N 45°26' E 012°16'1 2.2
2017-Sep-01 11:58N 45°27' E 012°15'0 0.0
2017-Sep-01 11:28N 45°27' E 012°15'0 0.0
2017-Sep-01 10:58N 45°27' E 012°15'0 0.0
2017-Sep-01 10:28N 45°27' E 012°15'0 0.0
2017-Sep-01 09:58N 45°27' E 012°15'0 0.0
2017-Sep-01 09:28N 45°27' E 012°15'0 0.0
2017-Sep-01 08:58N 45°27' E 012°15'0 0.0
2017-Sep-01 08:28N 45°27' E 012°15'0 0.0
2017-Sep-01 07:58N 45°27' E 012°15'0 0.0
2017-Sep-01 07:28N 45°27' E 012°15'0 0.0
2017-Sep-01 06:58N 45°27' E 012°15'0 0.0
2017-Sep-01 06:28N 45°27' E 012°15'0 0.0
2017-Sep-01 05:58N 45°27' E 012°15'0 0.0
2017-Sep-01 05:28N 45°27' E 012°15'0 0.0
2017-Sep-01 04:58N 45°27' E 012°15'0 0.0
2017-Sep-01 04:25N 45°27' E 012°15'0 0.0
2017-Sep-01 03:58N 45°27' E 012°15'0 0.0
2017-Sep-01 03:25N 45°27' E 012°15'0 0.0
2017-Sep-01 02:58N 45°27' E 012°15'0 0.0
2017-Sep-01 02:28N 45°27' E 012°15'0 0.0
2017-Sep-01 01:58N 45°27' E 012°15'0 0.0
2017-Sep-01 01:28N 45°27' E 012°15'0 0.0
2017-Sep-01 00:58N 45°27' E 012°15'0 0.0
2017-Sep-01 00:28N 45°27' E 012°15'0 0.0
2017-Aug-31 23:58N 45°27' E 012°15'0 0.0
2017-Aug-31 23:28N 45°27' E 012°15'0 0.0
2017-Aug-31 22:58N 45°27' E 012°15'0 0.0
2017-Aug-31 22:28N 45°27' E 012°15'0 0.0
2017-Aug-31 21:58N 45°27' E 012°15'0 0.0
2017-Aug-31 21:28N 45°27' E 012°15'0 0.0
2017-Aug-31 20:58N 45°27' E 012°15'0 0.0
2017-Aug-31 20:28N 45°27' E 012°15'0 0.0
2017-Aug-31 19:58N 45°27' E 012°15'0 0.0
2017-Aug-31 19:28N 45°27' E 012°15'0 0.0
2017-Aug-31 18:58N 45°27' E 012°15'0 0.0
2017-Aug-31 18:28N 45°27' E 012°15'0 0.0
2017-Aug-31 17:58N 45°27' E 012°15'0 0.0
2017-Aug-31 17:28N 45°27' E 012°15'0 0.0
2017-Aug-31 16:58N 45°27' E 012°15'0 0.0
2017-Aug-31 16:28N 45°27' E 012°15'0 0.0
2017-Aug-31 15:58N 45°27' E 012°15'0 0.0
2017-Aug-31 15:28N 45°27' E 012°15'0 0.0
2017-Aug-31 14:58N 45°27' E 012°15'0 0.0
2017-Aug-31 14:28N 45°27' E 012°15'0 0.0
2017-Aug-31 13:58N 45°27' E 012°15'0 0.0
2017-Aug-31 13:28N 45°27' E 012°15'0 0.0
2017-Aug-31 12:58N 45°27' E 012°15'0 0.0
2017-Aug-31 12:28N 45°27' E 012°15'0 0.0
2017-Aug-31 11:58N 45°27' E 012°15'0 0.0
2017-Aug-31 11:28N 45°27' E 012°15'0 0.0
2017-Aug-31 10:58N 45°27' E 012°15'0 0.0
2017-Aug-31 10:28N 45°27' E 012°15'0 0.0
2017-Aug-31 09:58N 45°27' E 012°15'0 0.0
2017-Aug-31 09:28N 45°27' E 012°15'0 0.0
2017-Aug-31 08:58N 45°27' E 012°15'0 0.0
2017-Aug-31 08:16N 45°27' E 012°15'0 0.0
2017-Aug-31 07:55N 45°27' E 012°15'0 0.0
2017-Aug-31 07:19N 45°27' E 012°15'0 0.0
2017-Aug-31 06:58N 45°27' E 012°15'0 0.0
2017-Aug-31 06:28N 45°27' E 012°15'1 1.5
2017-Aug-31 06:00N 45°27' E 012°15'2 3.2
2017-Aug-31 05:31N 45°25' E 012°16'4 7.2
2017-Aug-31 05:00N 45°22' E 012°15'5 9.0
2017-Aug-31 04:30N 45°20' E 012°21'2 4.7
2017-Aug-31 04:01N 45°19' E 012°24'2 3.9
2017-Aug-31 03:31N 45°19' E 012°27'4 8.8
2017-Aug-31 03:00N 45°16' E 012°32'713.6
2017-Aug-31 02:30N 45°12' E 012°40'713.5
2017-Aug-31 02:01N 45°09' E 012°48'714.0
2017-Aug-31 01:30N 45°03' E 012°55'714.1
2017-Aug-31 01:00N 44°59' E 013°02'  
Track history (hours):
 
Tides and Currents Weather Stations Pressure Air Temp Water Temp Dewpoint Dewpoint Depression Visibility Wind Speed Wind Dir Waves Ship Positions

APL New Jersey

Last reported at 2017-Sep-10 00:32 UTC. Time now 2017-Sep-20 23:56 UTC.
Position N 31°27' E 032°19'.
Warning: this ship's position is 10 days out of date.

Length 293 m; draft 13.8 m.

Type: Ship (hazmat cat A). MMSI: 636013522.

Date/timePositionNaut miles runAvg speedWind from/ knotsBaromVisibWave heightAir tempDewpointWater temp
2017-Sep-10 00:32N 31°27' E 032°19'0 0.1
2017-Sep-10 00:29N 31°27' E 032°19'0 0.0
2017-Sep-09 23:47N 31°27' E 032°19'0 0.0
2017-Sep-09 23:11N 31°27' E 032°19'0 0.0
2017-Sep-09 22:50N 31°27' E 032°19'0 0.1
2017-Sep-09 22:14N 31°27' E 032°19'0 0.0
2017-Sep-09 21:53N 31°27' E 032°19'0 0.0
2017-Sep-09 21:29N 31°27' E 032°19'0 0.0
2017-Sep-09 20:59N 31°27' E 032°19'0 0.1
2017-Sep-09 20:29N 31°27' E 032°19'0 0.0
2017-Sep-09 19:59N 31°27' E 032°19'0 0.0
2017-Sep-09 19:29N 31°27' E 032°19'0 0.0
2017-Sep-09 18:59N 31°27' E 032°19'0 0.0
2017-Sep-09 18:29N 31°27' E 032°19'0 0.0
2017-Sep-09 17:53N 31°27' E 032°19'0 0.0
2017-Sep-09 17:29N 31°27' E 032°19'0 0.0
2017-Sep-09 15:23N 31°27' E 032°19'0 0.0
2017-Sep-09 14:59N 31°27' E 032°19'0 0.0
2017-Sep-09 14:26N 31°27' E 032°19'0 0.0
2017-Sep-09 13:59N 31°27' E 032°19'0 0.0
2017-Sep-09 13:20N 31°27' E 032°19'0 0.1
2017-Sep-09 13:00N 31°27' E 032°19'0 0.0
2017-Sep-09 12:25N 31°27' E 032°19'0 0.0
2017-Sep-09 12:00N 31°27' E 032°19'0 0.0
2017-Sep-09 11:30N 31°27' E 032°19'0 0.0
2017-Sep-09 11:00N 31°27' E 032°19'19 2.9
2017-Sep-09 04:21N 31°39' E 032°02'  
2017-Sep-05 16:12N 35°42' E 014°59'418.1
2017-Sep-05 16:00N 35°43' E 014°54'917.9
2017-Sep-05 15:30N 35°45' E 014°44'916.2
2017-Sep-05 14:59N 35°48' E 014°34'2 3.2
2017-Sep-05 14:23N 35°49' E 014°32'0 0.0
2017-Sep-05 13:53N 35°49' E 014°32'0 0.0
2017-Sep-05 13:26N 35°49' E 014°32'0 0.0
2017-Sep-05 12:59N 35°49' E 014°32'0 0.0
2017-Sep-05 12:20N 35°49' E 014°32'0 0.0
2017-Sep-05 11:59N 35°49' E 014°32'0 0.0
2017-Sep-05 11:29N 35°49' E 014°32'0 0.0
2017-Sep-05 10:56N 35°49' E 014°32'0 0.0
2017-Sep-05 10:29N 35°49' E 014°32'0 0.0
2017-Sep-05 09:59N 35°49' E 014°32'0 0.0
2017-Sep-05 09:23N 35°49' E 014°32'0 0.0
2017-Sep-05 08:59N 35°49' E 014°32'0 0.0
2017-Sep-05 08:29N 35°49' E 014°32'0 0.0
2017-Sep-05 07:56N 35°49' E 014°32'0 0.0
2017-Sep-05 05:11N 35°49' E 014°32'0 0.0
2017-Sep-05 04:47N 35°49' E 014°32'0 0.0
2017-Sep-05 04:26N 35°49' E 014°32'0 0.0
2017-Sep-05 03:56N 35°49' E 014°32'0 0.0
2017-Sep-05 03:20N 35°49' E 014°32'0 0.0
2017-Sep-05 02:17N 35°49' E 014°32'0 0.0
2017-Sep-05 01:47N 35°49' E 014°32'0 0.0
2017-Sep-05 01:23N 35°49' E 014°32'0 0.0
2017-Sep-05 00:35N 35°49' E 014°32'0 0.0
2017-Sep-05 00:23N 35°49' E 014°32'0 0.0
2017-Sep-04 23:59N 35°49' E 014°32'0 0.0
2017-Sep-04 23:29N 35°49' E 014°32'0 0.0
2017-Sep-04 22:59N 35°49' E 014°32'0 0.0
2017-Sep-04 22:26N 35°49' E 014°32'0 0.0
2017-Sep-04 21:59N 35°49' E 014°32'0 0.0
2017-Sep-04 21:29N 35°49' E 014°32'0 0.0
2017-Sep-04 20:59N 35°49' E 014°32'0 0.0
2017-Sep-04 20:26N 35°49' E 014°32'0 0.0
2017-Sep-04 19:59N 35°49' E 014°32'0 0.1
2017-Sep-04 19:30N 35°49' E 014°32'1 2.9
2017-Sep-04 18:59N 35°49' E 014°34'2 3.5
2017-Sep-04 18:24N 35°47' E 014°36'0 0.5
2017-Sep-04 18:00N 35°48' E 014°36'0 0.5
2017-Sep-04 17:30N 35°48' E 014°36'0 0.4
2017-Sep-04 17:00N 35°48' E 014°36'2 4.4
2017-Sep-04 16:30N 35°47' E 014°39'3 6.0
2017-Sep-04 16:00N 35°46' E 014°43'510.8
2017-Sep-04 15:30N 35°46' E 014°49'612.6
2017-Sep-04 15:00N 35°50' E 014°55'714.2
2017-Sep-04 14:29N 35°56' E 015°00'10816.5
2017-Sep-04 07:57N 37°24' E 016°19'5319.0
2017-Sep-04 05:11N 38°07' E 016°58'38417.7
2017-Sep-03 07:29N 44°08' E 014°01'1021.4
2017-Sep-03 07:00N 44°16' E 013°52'1121.4
2017-Sep-03 06:30N 44°25' E 013°44'1121.3
2017-Sep-03 06:00N 44°34' E 013°36'1121.4
2017-Sep-03 05:31N 44°43' E 013°29'1121.2
2017-Sep-03 05:00N 44°52' E 013°21'1121.2
2017-Sep-03 04:30N 45°01' E 013°13'1020.9
2017-Sep-03 04:00N 45°10' E 013°05'1121.2
2017-Sep-03 03:30N 45°20' E 013°02'1020.3
2017-Sep-03 03:01N 45°28' E 013°10'1121.2
2017-Sep-03 02:30N 45°35' E 013°22'1019.2
2017-Sep-03 02:01N 45°37' E 013°35'612.8
2017-Sep-03 01:30N 45°34' E 013°43'1 1.8
2017-Sep-03 01:00N 45°33' E 013°44'0 0.1
2017-Sep-03 00:30N 45°33' E 013°44'0 0.0
2017-Sep-03 00:01N 45°33' E 013°44'0 0.0
2017-Sep-02 23:30N 45°33' E 013°44'0 0.0
2017-Sep-02 23:01N 45°33' E 013°44'0 0.0
2017-Sep-02 22:30N 45°33' E 013°44'0 0.0
2017-Sep-02 21:55N 45°33' E 013°44'0 0.0
2017-Sep-02 21:25N 45°33' E 013°44'0 0.0
2017-Sep-02 21:01N 45°33' E 013°44'0 0.0
2017-Sep-02 20:24N 45°33' E 013°44'0 0.0
2017-Sep-02 20:01N 45°33' E 013°44'0 0.0
2017-Sep-02 19:30N 45°33' E 013°44'0 0.0
2017-Sep-02 19:01N 45°33' E 013°44'0 0.0
2017-Sep-02 18:31N 45°33' E 013°44'0 0.0
2017-Sep-02 18:00N 45°33' E 013°44'0 0.0
2017-Sep-02 17:28N 45°33' E 013°44'0 0.0
2017-Sep-02 17:00N 45°33' E 013°44'0 0.0
2017-Sep-02 16:30N 45°33' E 013°44'0 0.0
2017-Sep-02 16:01N 45°33' E 013°44'0 0.0
2017-Sep-02 15:27N 45°33' E 013°44'0 0.0
2017-Sep-02 15:00N 45°33' E 013°44'0 0.0
2017-Sep-02 14:30N 45°33' E 013°44'0 0.0
2017-Sep-02 14:01N 45°33' E 013°44'0 0.0
2017-Sep-02 13:27N 45°33' E 013°44'0 0.0
2017-Sep-02 13:00N 45°33' E 013°44'0 0.0
2017-Sep-02 12:31N 45°33' E 013°44'0 0.0
2017-Sep-02 12:01N 45°33' E 013°44'0 0.0
2017-Sep-02 11:30N 45°33' E 013°44'0 0.0
2017-Sep-02 11:00N 45°33' E 013°44'0 0.0
2017-Sep-02 10:27N 45°33' E 013°44'0 0.0
2017-Sep-02 10:00N 45°33' E 013°44'0 0.0
2017-Sep-02 09:31N 45°33' E 013°44'0 0.0
2017-Sep-02 09:00N 45°33' E 013°44'0 0.0
2017-Sep-02 08:24N 45°33' E 013°44'0 0.0
2017-Sep-02 08:00N 45°33' E 013°44'0 0.0
2017-Sep-02 07:30N 45°33' E 013°44'0 0.0
2017-Sep-02 07:00N 45°33' E 013°44'0 0.0
2017-Sep-02 06:30N 45°33' E 013°44'0 0.0
2017-Sep-02 06:01N 45°33' E 013°44'0 0.0
2017-Sep-02 05:31N 45°33' E 013°44'0 0.0
2017-Sep-02 04:54N 45°33' E 013°44'0 0.0
2017-Sep-02 04:24N 45°33' E 013°44'0 0.0
2017-Sep-02 04:00N 45°33' E 013°44'0 0.0
2017-Sep-02 03:31N 45°33' E 013°44'0 0.0
2017-Sep-02 03:01N 45°33' E 013°44'0 0.0
2017-Sep-02 02:30N 45°33' E 013°44'0 0.0
2017-Sep-02 02:00N 45°33' E 013°44'0 0.0
2017-Sep-02 01:30N 45°33' E 013°44'0 0.0
2017-Sep-02 01:00N 45°33' E 013°44'0 0.0
2017-Sep-02 00:31N 45°33' E 013°44'0 0.0
2017-Sep-02 00:01N 45°33' E 013°44'0 0.0
2017-Sep-01 23:30N 45°33' E 013°44'0 0.0
2017-Sep-01 22:57N 45°33' E 013°44'0 0.0
2017-Sep-01 22:31N 45°33' E 013°44'0 0.0
2017-Sep-01 22:00N 45°33' E 013°44'0 0.0
2017-Sep-01 21:25N 45°33' E 013°44'0 0.1
2017-Sep-01 20:54N 45°33' E 013°44'0 0.1
2017-Sep-01 20:28N 45°33' E 013°44'0 0.1
2017-Sep-01 20:01N 45°33' E 013°44'0 0.0
2017-Sep-01 19:30N 45°33' E 013°44'0 0.0
2017-Sep-01 19:00N 45°33' E 013°44'0 0.1
2017-Sep-01 18:30N 45°33' E 013°44'2 4.5
2017-Sep-01 18:00N 45°34' E 013°41'510.1
2017-Sep-01 17:30N 45°35' E 013°34'714.1
2017-Sep-01 17:00N 45°32' E 013°25'815.9
2017-Sep-01 16:30N 45°28' E 013°14'816.0
2017-Sep-01 16:00N 45°25' E 013°04'815.8
2017-Sep-01 15:30N 45°21' E 012°54'815.5
2017-Sep-01 15:00N 45°18' E 012°44'815.7
2017-Sep-01 14:30N 45°15' E 012°34'713.2
2017-Sep-01 14:00N 45°18' E 012°25'611.3
2017-Sep-01 13:30N 45°20' E 012°18'3 6.8
2017-Sep-01 13:00N 45°23' E 012°16'3 5.9
2017-Sep-01 12:30N 45°26' E 012°16'1 2.2
2017-Sep-01 11:58N 45°27' E 012°15'0 0.0
2017-Sep-01 11:28N 45°27' E 012°15'0 0.0
2017-Sep-01 10:58N 45°27' E 012°15'0 0.0
2017-Sep-01 10:28N 45°27' E 012°15'0 0.0
2017-Sep-01 09:58N 45°27' E 012°15'0 0.0
2017-Sep-01 09:28N 45°27' E 012°15'0 0.0
2017-Sep-01 08:58N 45°27' E 012°15'0 0.0
2017-Sep-01 08:28N 45°27' E 012°15'0 0.0
2017-Sep-01 07:58N 45°27' E 012°15'0 0.0
2017-Sep-01 07:28N 45°27' E 012°15'0 0.0
2017-Sep-01 06:58N 45°27' E 012°15'0 0.0
2017-Sep-01 06:28N 45°27' E 012°15'0 0.0
2017-Sep-01 05:58N 45°27' E 012°15'0 0.0
2017-Sep-01 05:28N 45°27' E 012°15'0 0.0
2017-Sep-01 04:58N 45°27' E 012°15'0 0.0
2017-Sep-01 04:25N 45°27' E 012°15'0 0.0
2017-Sep-01 03:58N 45°27' E 012°15'0 0.0
2017-Sep-01 03:25N 45°27' E 012°15'0 0.0
2017-Sep-01 02:58N 45°27' E 012°15'0 0.0
2017-Sep-01 02:28N 45°27' E 012°15'0 0.0
2017-Sep-01 01:58N 45°27' E 012°15'0 0.0
2017-Sep-01 01:28N 45°27' E 012°15'0 0.0
2017-Sep-01 00:58N 45°27' E 012°15'0 0.0
2017-Sep-01 00:28N 45°27' E 012°15'0 0.0
2017-Aug-31 23:58N 45°27' E 012°15'0 0.0
2017-Aug-31 23:28N 45°27' E 012°15'0 0.0
2017-Aug-31 22:58N 45°27' E 012°15'0 0.0
2017-Aug-31 22:28N 45°27' E 012°15'0 0.0
2017-Aug-31 21:58N 45°27' E 012°15'0 0.0
2017-Aug-31 21:28N 45°27' E 012°15'0 0.0
2017-Aug-31 20:58N 45°27' E 012°15'0 0.0
2017-Aug-31 20:28N 45°27' E 012°15'0 0.0
2017-Aug-31 19:58N 45°27' E 012°15'0 0.0
2017-Aug-31 19:28N 45°27' E 012°15'0 0.0
2017-Aug-31 18:58N 45°27' E 012°15'0 0.0
2017-Aug-31 18:28N 45°27' E 012°15'0 0.0
2017-Aug-31 17:58N 45°27' E 012°15'0 0.0
2017-Aug-31 17:28N 45°27' E 012°15'0 0.0
2017-Aug-31 16:58N 45°27' E 012°15'0 0.0
2017-Aug-31 16:28N 45°27' E 012°15'0 0.0
2017-Aug-31 15:58N 45°27' E 012°15'0 0.0
2017-Aug-31 15:28N 45°27' E 012°15'0 0.0
2017-Aug-31 14:58N 45°27' E 012°15'0 0.0
2017-Aug-31 14:28N 45°27' E 012°15'0 0.0
2017-Aug-31 13:58N 45°27' E 012°15'0 0.0
2017-Aug-31 13:28N 45°27' E 012°15'0 0.0
2017-Aug-31 12:58N 45°27' E 012°15'0 0.0
2017-Aug-31 12:28N 45°27' E 012°15'0 0.0
2017-Aug-31 11:58N 45°27' E 012°15'0 0.0
2017-Aug-31 11:28N 45°27' E 012°15'0 0.0
2017-Aug-31 10:58N 45°27' E 012°15'0 0.0
2017-Aug-31 10:28N 45°27' E 012°15'0 0.0
2017-Aug-31 09:58N 45°27' E 012°15'0 0.0
2017-Aug-31 09:28N 45°27' E 012°15'0 0.0
2017-Aug-31 08:58N 45°27' E 012°15'0 0.0
2017-Aug-31 08:16N 45°27' E 012°15'0 0.0
2017-Aug-31 07:55N 45°27' E 012°15'0 0.0
2017-Aug-31 07:19N 45°27' E 012°15'0 0.0
2017-Aug-31 06:58N 45°27' E 012°15'0 0.0
2017-Aug-31 06:28N 45°27' E 012°15'1 1.5
2017-Aug-31 06:00N 45°27' E 012°15'2 3.2
2017-Aug-31 05:31N 45°25' E 012°16'4 7.2
2017-Aug-31 05:00N 45°22' E 012°15'5 9.0
2017-Aug-31 04:30N 45°20' E 012°21'2 4.7
2017-Aug-31 04:01N 45°19' E 012°24'2 3.9
2017-Aug-31 03:31N 45°19' E 012°27'4 8.8
2017-Aug-31 03:00N 45°16' E 012°32'713.6
2017-Aug-31 02:30N 45°12' E 012°40'713.5
2017-Aug-31 02:01N 45°09' E 012°48'714.0
2017-Aug-31 01:30N 45°03' E 012°55'714.1
2017-Aug-31 01:00N 44°59' E 013°02'  

Dump ship's entire track history